Time;durP1;ratioP1;P1;durP2;ratioP2;P2;SDS_P1;SDS_P2;PMS_P1;PMS_P2;Temp;Humidity;BMP_temperature;BMP_pressure;BME280_temperature;BME280_humidity;BME280_pressure;Samples;Min_cycle;Max_cycle;Signal;HPM_P1;HPM_P2
2022/06/14 00:00:55;;;;;;;8.98;7.10;;;;;;;19.52;100.00;100375.61;1743194;82;21160;-91
2022/06/14 00:03:36;;;;;;;7.20;6.60;;;;;;;19.51;100.00;100376.09;1743204;82;21133;-88
2022/06/14 00:06:20;;;;;;;7.85;6.87;;;;;;;19.49;100.00;100382.08;1743230;81;26585;-87
2022/06/14 00:08:47;;;;;;;7.83;7.08;;;;;;;19.48;100.00;100382.23;1744261;82;21026;-88
2022/06/14 00:11:26;;;;;;;8.95;6.83;;;;;;;19.43;100.00;100382.77;1745387;82;20971;-88
2022/06/14 00:13:57;;;;;;;8.55;7.28;;;;;;;19.41;100.00;100372.91;1745388;82;21646;-88
2022/06/14 00:16:29;;;;;;;8.10;7.40;;;;;;;19.36;100.00;100373.93;1745701;81;21030;-89
2022/06/14 00:18:56;;;;;;;7.62;6.92;;;;;;;19.28;100.00;100371.36;1745436;81;21090;-87
2022/06/14 00:21:23;;;;;;;8.35;7.55;;;;;;;19.21;100.00;100366.80;1745616;82;21046;-88
2022/06/14 00:23:51;;;;;;;7.72;7.08;;;;;;;19.18;100.00;100371.14;1745262;82;21006;-87
2022/06/14 00:26:18;;;;;;;7.53;6.72;;;;;;;19.15;100.00;100366.20;1738316;82;21140;-87
2022/06/14 00:28:46;;;;;;;7.72;7.08;;;;;;;19.13;100.00;100366.06;1737024;82;21003;-87
2022/06/14 00:31:21;;;;;;;8.10;7.10;;;;;;;19.15;100.00;100365.39;1737228;82;21022;-88
2022/06/14 00:33:49;;;;;;;7.85;7.15;;;;;;;19.17;100.00;100371.30;1737327;82;21003;-88
2022/06/14 00:36:30;;;;;;;8.80;8.05;;;;;;;19.16;100.00;100367.84;1729814;83;21061;-87
2022/06/14 00:39:03;;;;;;;8.60;7.72;;;;;;;19.13;100.00;100366.88;1729492;82;21185;-88
2022/06/14 00:41:41;;;;;;;9.28;8.30;;;;;;;19.11;100.00;100374.66;1726935;82;21046;-88
2022/06/14 00:44:19;;;;;;;10.18;9.10;;;;;;;19.09;100.00;100374.84;1735084;82;20963;-87
2022/06/14 00:47:12;;;;;;;10.50;9.33;;;;;;;19.05;100.00;100378.81;1735942;82;21058;-87
2022/06/14 00:49:51;;;;;;;10.58;8.60;;;;;;;18.99;100.00;100373.73;1736409;82;21046;-88
2022/06/14 00:52:35;;;;;;;9.10;8.20;;;;;;;18.93;100.00;100371.81;1737414;82;21215;-88
2022/06/14 00:55:11;;;;;;;10.65;9.65;;;;;;;18.88;100.00;100380.22;1757393;81;21127;-87
2022/06/14 00:57:49;;;;;;;11.78;10.70;;;;;;;18.86;100.00;100384.88;1740603;82;21074;-87
2022/06/14 01:00:20;;;;;;;10.13;9.13;;;;;;;18.82;100.00;100378.29;1743080;81;21010;-87
2022/06/14 01:02:54;;;;;;;10.08;9.13;;;;;;;18.73;100.00;100373.58;1743201;82;21085;-87
2022/06/14 01:06:05;;;;;;;10.85;9.75;;;;;;;18.70;100.00;100379.70;1743231;82;21171;-90
2022/06/14 01:08:05;;;;;;;9.93;8.78;;;;;;;18.67;100.00;100382.16;1737544;82;21034;-88
2022/06/14 01:10:34;;;;;;;10.48;9.38;;;;;;;18.65;100.00;100379.38;1712110;82;21562;-88
2022/06/14 01:13:03;;;;;;;9.73;8.83;;;;;;;18.62;100.00;100382.39;1743445;82;21050;-88
2022/06/14 01:15:33;;;;;;;10.90;9.23;;;;;;;18.61;100.00;100384.19;1743156;81;21038;-89
2022/06/14 01:18:06;;;;;;;11.12;10.05;;;;;;;18.62;100.00;100379.23;1743256;82;21407;-88
2022/06/14 01:20:36;;;;;;;11.68;9.53;;;;;;;18.62;100.00;100383.20;1743312;81;20996;-88
2022/06/14 01:23:06;;;;;;;10.20;9.23;;;;;;;18.60;100.00;100380.74;1742849;81;21552;-87
2022/06/14 01:25:38;;;;;;;10.30;9.30;;;;;;;18.63;100.00;100391.94;1743109;82;21098;-87
2022/06/14 01:28:10;;;;;;;10.60;9.60;;;;;;;18.61;100.00;100389.45;1740053;82;21077;-88
2022/06/14 01:30:44;;;;;;;23.13;10.93;;;;;;;18.61;100.00;100392.09;1743416;82;21267;-88
2022/06/14 01:33:16;;;;;;;12.75;10.78;;;;;;;18.56;100.00;100387.34;1737009;82;21037;-87
2022/06/14 01:35:49;;;;;;;12.15;10.45;;;;;;;18.42;100.00;100384.97;1734568;82;21531;-87
2022/06/14 01:38:17;;;;;;;12.80;9.95;;;;;;;18.27;100.00;100378.27;1736467;82;20999;-88
2022/06/14 01:41:09;;;;;;;11.10;10.10;;;;;;;18.20;100.00;100379.11;1743148;82;21058;-88
2022/06/14 01:43:58;;;;;;;11.08;10.00;;;;;;;18.19;100.00;100380.94;1737765;82;21188;-88
2022/06/14 01:46:31;;;;;;;10.70;9.65;;;;;;;18.22;100.00;100380.61;1743055;82;21472;-88
2022/06/14 01:52:35;;;;;;;10.68;9.58;;;;;;;18.28;100.00;100379.92;1745493;82;21011;-88
2022/06/14 01:55:27;;;;;;;10.48;9.50;;;;;;;18.32;100.00;100383.03;1744340;82;21554;-89
2022/06/14 01:58:21;;;;;;;11.03;10.00;;;;;;;18.37;100.00;100379.87;1743896;82;21046;-88
2022/06/14 02:01:14;;;;;;;10.35;9.25;;;;;;;18.39;100.00;100383.14;1745591;82;21050;-87
2022/06/14 02:06:53;;;;;;;9.83;8.83;;;;;;;18.32;100.00;100383.03;1745498;81;21317;-89
2022/06/14 02:09:28;;;;;;;10.10;8.73;;;;;;;18.28;100.00;100375.13;1745562;82;21022;-88
2022/06/14 02:11:59;;;;;;;11.20;9.93;;;;;;;18.27;100.00;100378.27;1739600;82;21889;-89
2022/06/14 02:14:38;;;;;;;11.28;10.10;;;;;;;18.26;100.00;100375.31;1745715;82;21136;-88
2022/06/14 02:17:25;;;;;;;10.75;9.58;;;;;;;18.24;100.00;100377.28;1745612;81;21519;-88
2022/06/14 02:20:06;;;;;;;10.72;9.43;;;;;;;18.23;100.00;100366.92;1677433;84;21068;-88
2022/06/14 02:22:48;;;;;;;11.53;10.32;;;;;;;18.23;100.00;100367.73;1745452;82;21598;-88
2022/06/14 02:25:21;;;;;;;10.88;9.80;;;;;;;18.26;100.00;100372.67;1739977;82;21174;-88
2022/06/14 02:28:09;;;;;;;11.18;10.18;;;;;;;18.27;100.00;100371.69;1742771;82;20956;-88
2022/06/14 02:30:48;;;;;;;10.65;9.58;;;;;;;18.27;100.00;100369.05;1737943;82;20972;-88
2022/06/14 02:33:29;;;;;;;10.35;9.25;;;;;;;18.30;100.00;100375.78;1711872;82;21042;-88
2022/06/14 02:36:02;;;;;;;11.15;10.05;;;;;;;18.36;100.00;100367.18;1737852;82;20999;-91
2022/06/14 02:38:40;;;;;;;11.10;10.10;;;;;;;18.43;100.00;100369.45;1742821;82;21147;-88
2022/06/14 02:41:21;;;;;;;12.00;9.93;;;;;;;18.51;100.00;100376.50;1737498;82;21026;-88
2022/06/14 02:44:05;;;;;;;11.03;10.03;;;;;;;18.57;100.00;100373.67;1687187;82;21022;-88
2022/06/14 02:47:06;;;;;;;12.30;11.12;;;;;;;18.65;100.00;100378.06;1791985;79;21074;-89
2022/06/14 02:49:54;;;;;;;14.25;11.10;;;;;;;18.72;100.00;100375.05;1797543;79;21038;-88
2022/06/14 02:52:41;;;;;;;14.18;12.88;;;;;;;18.80;100.00;100376.31;1792892;79;21819;-88
2022/06/14 02:55:17;;;;;;;17.57;15.70;;;;;;;18.88;100.00;100372.81;1797446;79;21026;-87
2022/06/14 02:57:58;;;;;;;18.05;14.78;;;;;;;18.98;100.00;100367.33;1788901;79;20995;-89
2022/06/14 03:00:37;;;;;;;17.15;13.55;;;;;;;19.05;100.00;100373.53;1792009;79;21517;-88
2022/06/14 03:03:18;;;;;;;14.03;11.83;;;;;;;19.12;100.00;100369.19;1795476;79;21588;-87
2022/06/14 03:06:06;;;;;;;14.78;10.50;;;;;;;19.20;100.00;100371.76;1797462;79;21265;-88
2022/06/14 03:08:54;;;;;;;10.60;9.08;;;;;;;19.27;100.00;100366.59;1797340;79;20979;-89
2022/06/14 03:11:32;;;;;;;10.65;9.53;;;;;;;19.33;100.00;100367.19;1797415;79;21081;-91
2022/06/14 03:14:19;;;;;;;10.38;9.20;;;;;;;19.36;100.00;100369.97;1794584;79;20967;-88
2022/06/14 03:17:16;;;;;;;10.15;8.58;;;;;;;19.36;100.00;100372.13;1797136;79;20988;-89
2022/06/14 03:20:18;;;;;;;9.70;8.78;;;;;;;19.41;100.00;100366.80;1797722;79;21488;-88
2022/06/14 03:23:00;;;;;;;8.65;7.85;;;;;;;19.46;100.00;100374.50;1797333;79;21018;-88
2022/06/14 03:25:42;;;;;;;8.35;7.65;;;;;;;19.54;100.00;100377.06;1790392;79;21019;-88
2022/06/14 03:28:14;;;;;;;8.65;7.85;;;;;;;19.61;100.00;100372.37;1794392;79;21043;-91
2022/06/14 03:30:50;;;;;;;9.70;8.08;;;;;;;19.69;100.00;100371.81;1774573;79;21548;-88
2022/06/14 03:33:56;;;;;;;9.30;8.40;;;;;;;19.80;100.00;100373.17;1785200;79;21185;-89
2022/06/14 03:36:24;;;;;;;9.38;8.48;;;;;;;19.91;100.00;100376.41;1797247;79;21078;-88
2022/06/14 03:38:56;;;;;;;9.33;8.38;;;;;;;20.03;100.00;100380.72;1790307;79;21051;-88
2022/06/14 03:41:27;;;;;;;10.00;8.23;;;;;;;20.11;100.00;100373.50;1796463;79;21011;-89
2022/06/14 03:44:00;;;;;;;10.08;8.68;;;;;;;20.22;100.00;100380.66;1797426;79;21963;-88
2022/06/14 03:46:33;;;;;;;;;;;;;;;20.31;100.00;100379.03;1800007;79;21186;-88
2022/06/14 03:49:12;;;;;;;8.80;7.83;;;;;;;20.39;100.00;100380.73;1792842;79;20147;-89
2022/06/14 03:52:22;;;;;;;8.80;7.72;;;;;;;20.51;100.00;100377.62;1791620;79;21082;-89
2022/06/14 03:55:25;;;;;;;10.80;8.73;;;;;;;20.61;100.00;100374.98;1797340;79;21054;-89
2022/06/14 03:58:35;;;;;;;9.30;8.30;;;;;;;20.74;100.00;100374.85;1797507;79;21440;-88
2022/06/14 04:01:11;;;;;;;9.18;8.30;;;;;;;20.85;100.00;100368.23;1797417;79;21246;-89
2022/06/14 04:04:17;;;;;;;9.78;8.35;;;;;;;20.97;100.00;100374.65;1796585;79;21018;-88
2022/06/14 04:07:23;;;;;;;11.68;8.50;;;;;;;21.05;100.00;100369.74;1797661;79;20983;-88
2022/06/14 04:10:17;;;;;;;8.75;7.95;;;;;;;21.16;100.00;100368.41;1778863;79;20979;-88
2022/06/14 04:12:50;;;;;;;9.08;8.20;;;;;;;21.30;100.00;100376.75;1740091;82;21558;-89
2022/06/14 04:15:41;;;;;;;9.03;8.18;;;;;;;21.40;100.00;100365.33;1739383;82;20995;-87
2022/06/14 04:18:38;;;;;;;9.10;8.15;;;;;;;21.55;100.00;100368.38;1739158;82;26686;-90
2022/06/14 04:21:50;;;;;;;8.55;7.85;;;;;;;21.68;100.00;100365.03;1748922;80;21444;-87
2022/06/14 04:24:56;;;;;;;14.47;8.08;;;;;;;21.79;100.00;100367.14;1797483;79;20990;-88
2022/06/14 04:27:47;;;;;;;9.18;8.18;;;;;;;21.93;100.00;100366.68;1803868;79;21045;-88
2022/06/14 04:30:26;;;;;;;;;;;;;;;22.11;100.00;100371.47;1810875;79;21166;-88
2022/06/14 04:33:08;;;;;;;12.03;8.20;;;;;;;22.25;100.00;100368.34;1802526;79;20789;-89
2022/06/14 04:35:50;;;;;;;9.65;7.90;;;;;;;22.38;100.00;100369.73;1796216;79;21010;-88
2022/06/14 04:38:40;;;;;;;8.55;7.67;;;;;;;22.51;100.00;100380.09;1795809;79;20983;-88
2022/06/14 04:41:19;;;;;;;8.80;7.63;;;;;;;22.64;100.00;100376.13;1797418;79;21495;-88
2022/06/14 04:44:07;;;;;;;9.03;7.37;;;;;;;22.77;100.00;100378.52;1802620;79;21310;-88
2022/06/14 04:46:49;;;;;;;8.20;7.50;;;;;;;22.87;100.00;100373.64;1794579;79;21508;-88
2022/06/14 04:49:50;;;;;;;9.25;7.65;;;;;;;23.00;100.00;100370.16;1795125;79;20982;-87
2022/06/14 04:52:28;;;;;;;9.48;7.78;;;;;;;23.15;100.00;100367.31;1776176;80;21088;-87
2022/06/14 04:55:16;;;;;;;9.33;7.35;;;;;;;23.30;100.00;100365.81;1774708;80;21544;-88
2022/06/14 04:57:48;;;;;;;9.08;8.28;;;;;;;23.43;100.00;100368.44;1768942;80;21346;-88
2022/06/14 05:00:23;;;;;;;13.03;8.28;;;;;;;23.54;100.00;100360.34;1776644;80;21038;-89
2022/06/14 05:03:07;;;;;;;14.35;8.58;;;;;;;23.63;100.00;100366.28;1776341;80;21014;-88
2022/06/14 05:05:45;;;;;;;7.95;7.20;;;;;;;23.74;100.00;100369.60;1782834;78;21069;-89
2022/06/14 05:08:43;;;;;;;11.55;7.35;;;;;;;23.89;100.00;100366.70;1796090;79;21631;-88
2022/06/14 05:11:28;;;;;;;9.30;6.60;;;;;;;24.03;100.00;100368.02;1802631;79;21304;-88
2022/06/14 05:14:19;;;;;;;7.75;7.05;;;;;;;24.17;100.00;100363.46;1802496;79;21087;-90
2022/06/14 05:16:53;;;;;;;7.62;6.92;;;;;;;24.30;100.00;100367.91;1804874;79;22158;-88
2022/06/14 05:19:38;;;;;;;6.78;6.17;;;;;;;24.44;100.00;100360.14;1808063;79;21035;-87
2022/06/14 05:22:17;;;;;;;6.60;5.90;;;;;;;24.57;100.00;100357.92;1803805;79;21089;-89
2022/06/14 05:24:44;;;;;;;6.85;6.17;;;;;;;24.73;100.00;100357.94;1800016;79;21262;-90
2022/06/14 05:27:35;;;;;;;6.67;6.00;;;;;;;24.88;100.00;100358.97;1808376;79;21011;-88
2022/06/14 05:30:42;;;;;;;6.85;6.15;;;;;;;25.02;100.00;100362.34;1808404;79;21942;-89
2022/06/14 05:33:33;;;;;;;6.80;6.17;;;;;;;25.17;100.00;100362.83;1808875;79;21137;-89
2022/06/14 05:36:17;;;;;;;6.55;5.65;;;;;;;25.31;100.00;100354.20;1806554;79;21036;-88
2022/06/14 05:38:55;;;;;;;11.33;6.45;;;;;;;25.43;100.00;100348.17;1796655;79;21149;-88
2022/06/14 05:41:33;;;;;;;7.37;5.80;;;;;;;25.54;100.00;100345.28;1788687;78;21022;-88
2022/06/14 05:44:11;;;;;;;6.67;6.17;;;;;;;25.69;100.00;100353.73;1801621;79;21029;-88
2022/06/14 05:46:45;;;;;;;6.60;5.95;;;;;;;25.84;100.00;100348.03;1808239;79;21097;-87
2022/06/14 05:49:22;;;;;;;8.88;5.72;;;;;;;26.00;100.00;100353.26;1807672;79;21081;-90
2022/06/14 05:52:04;;;;;;;5.60;5.08;;;;;;;26.13;100.00;100351.81;1805289;79;21277;-87
2022/06/14 05:54:42;;;;;;;11.63;5.85;;;;;;;26.28;100.00;100358.59;1806229;79;21089;-89
2022/06/14 05:57:27;;;;;;;6.05;5.35;;;;;;;26.41;100.00;100354.39;1797436;79;21077;-87
2022/06/14 06:00:18;;;;;;;5.62;5.12;;;;;;;26.53;100.00;100353.62;1752171;81;21046;-88
2022/06/14 06:03:30;;;;;;;5.87;5.37;;;;;;;26.66;100.00;100360.63;1726342;81;21019;-89
2022/06/14 06:06:05;;;;;;;6.15;5.17;;;;;;;26.75;100.00;100361.94;1726458;83;21727;-88
2022/06/14 06:08:53;;;;;;;5.55;5.10;;;;;;;26.83;100.00;100350.12;1728108;83;21050;-90
2022/06/14 06:11:46;;;;;;;5.62;5.20;;;;;;;26.93;100.00;100357.85;1739964;82;21008;-88
2022/06/14 06:14:31;;;;;;;7.50;5.37;;;;;;;27.04;100.00;100360.23;1715145;82;21029;-89
2022/06/14 06:17:09;;;;;;;5.80;5.30;;;;;;;27.16;100.00;100366.13;1721208;82;21155;-88
2022/06/14 06:20:00;;;;;;;5.30;4.90;;;;;;;27.28;100.00;100362.91;1719429;82;21467;-89
2022/06/14 06:22:35;;;;;;;5.80;5.30;;;;;;;27.38;100.00;100368.50;1741889;82;21810;-91
2022/06/14 06:25:19;;;;;;;5.58;5.08;;;;;;;27.48;100.00;100357.77;1744052;81;21091;-90
2022/06/14 06:27:52;;;;;;;5.90;5.33;;;;;;;27.56;100.00;100354.74;1759329;80;21258;-88
2022/06/14 06:30:39;;;;;;;6.05;5.55;;;;;;;27.68;100.00;100352.84;1733948;82;21528;-89
2022/06/14 06:33:10;;;;;;;5.47;5.08;;;;;;;27.78;100.00;100352.27;1721273;83;21235;-89
2022/06/14 06:35:44;;;;;;;;;;;;;;;27.93;100.00;100353.62;1728330;83;21014;-88
2022/06/14 06:38:22;;;;;;;6.17;5.67;;;;;;;28.01;100.00;100355.92;1719564;83;20184;-88
2022/06/14 06:43:42;;;;;;;5.12;4.72;;;;;;;28.15;100.00;100353.81;1720890;83;21588;-88
2022/06/14 06:46:12;;;;;;;5.17;4.78;;;;;;;28.25;98.14;100357.20;1741621;82;21307;-88
2022/06/14 06:48:45;;;;;;;6.50;5.35;;;;;;;28.38;97.43;100365.46;1739868;81;21018;-88
2022/06/14 06:51:16;;;;;;;12.18;5.25;;;;;;;28.48;98.47;100362.98;1745579;80;21046;-88
2022/06/14 06:53:46;;;;;;;;;;;;;;;28.58;92.95;100359.11;1736508;81;21093;-88
2022/06/14 06:56:30;;;;;;;9.27;4.93;;;;;;;28.71;95.70;100356.69;1714474;83;20186;-88
2022/06/14 06:59:07;;;;;;;6.70;5.08;;;;;;;28.82;95.72;100361.67;1719137;83;21173;-89
2022/06/14 07:01:41;;;;;;;5.75;5.25;;;;;;;28.95;93.55;100362.71;1715116;80;21791;-92
2022/06/14 07:07:21;;;;;;;5.33;4.83;;;;;;;29.09;84.08;100364.50;1748492;82;21049;-90
2022/06/14 07:09:55;;;;;;;6.40;5.50;;;;;;;29.14;86.98;100363.77;1740822;80;21010;-89
2022/06/14 07:12:45;;;;;;;5.40;5.00;;;;;;;29.23;88.09;100369.00;1719261;83;21812;-88
2022/06/14 07:15:37;;;;;;;8.03;5.45;;;;;;;29.30;81.95;100366.16;1747753;81;21507;-89
2022/06/14 07:18:33;;;;;;;8.00;5.50;;;;;;;29.36;81.70;100359.03;1748132;80;20999;-88
2022/06/14 07:21:23;;;;;;;5.45;5.05;;;;;;;29.41;82.29;100358.55;1730036;80;21119;-88
2022/06/14 07:23:59;;;;;;;5.72;5.22;;;;;;;29.49;84.45;100364.03;1747911;81;21078;-89
2022/06/14 07:26:56;;;;;;;7.12;5.20;;;;;;;29.62;84.15;100359.35;1744377;82;21154;-88
2022/06/14 07:29:35;;;;;;;5.80;5.20;;;;;;;29.68;82.17;100359.72;1729252;81;21027;-89
2022/06/14 07:32:20;;;;;;;8.30;5.47;;;;;;;29.70;77.80;100359.75;1717970;81;21071;-89
2022/06/14 07:34:49;;;;;;;5.80;5.30;;;;;;;29.75;83.87;100362.48;1704932;84;21015;-89
2022/06/14 07:37:27;;;;;;;6.05;5.42;;;;;;;29.87;85.19;100358.87;1714359;83;21102;-91
2022/06/14 07:40:07;;;;;;;5.72;5.12;;;;;;;29.96;75.53;100360.59;1728159;82;21268;-89
2022/06/14 07:42:52;;;;;;;5.97;5.37;;;;;;;29.99;71.87;100361.45;1717031;81;21023;-89
2022/06/14 07:45:36;;;;;;;5.00;4.60;;;;;;;29.99;73.80;100360.91;1701184;84;21664;-89
2022/06/14 07:48:36;;;;;;;5.55;5.00;;;;;;;30.03;72.12;100361.21;1727688;81;21002;-89
2022/06/14 07:51:11;;;;;;;5.78;5.17;;;;;;;29.97;68.42;100354.97;1708113;83;21097;-89
2022/06/14 07:53:46;;;;;;;5.80;5.30;;;;;;;29.93;67.44;100363.77;1723715;82;21158;-89
2022/06/14 07:56:23;;;;;;;9.88;5.70;;;;;;;29.95;69.89;100359.80;1718606;81;21007;-89
2022/06/14 07:59:09;;;;;;;6.67;5.50;;;;;;;30.02;72.36;100359.07;1710576;82;21089;-88
2022/06/14 08:01:48;;;;;;;7.45;5.42;;;;;;;30.17;73.31;100361.09;1721330;82;20976;-88
2022/06/14 08:05:03;;;;;;;5.45;4.95;;;;;;;30.29;70.92;100358.25;1711358;83;21567;-89
2022/06/14 08:07:33;;;;;;;5.65;5.15;;;;;;;30.39;76.14;100357.56;1700954;82;21055;-89
2022/06/14 08:10:12;;;;;;;5.78;4.97;;;;;;;30.49;67.61;100358.19;1751707;80;21034;-91
2022/06/14 08:13:08;;;;;;;5.50;5.00;;;;;;;30.51;70.78;100356.89;1724433;82;21074;-89
2022/06/14 08:15:50;;;;;;;7.08;5.80;;;;;;;30.53;66.52;100356.11;1743764;80;20974;-88
2022/06/14 08:18:23;;;;;;;5.53;5.03;;;;;;;30.57;71.23;100356.41;1749761;81;21077;-93
2022/06/14 08:21:20;;;;;;;6.05;5.37;;;;;;;30.65;71.56;100353.77;1716564;82;21875;-90
2022/06/14 08:24:23;;;;;;;6.50;5.85;;;;;;;30.76;66.86;100351.45;1740975;81;21559;-89
2022/06/14 08:27:07;;;;;;;5.65;5.15;;;;;;;30.86;64.78;100352.05;1704941;81;21027;-88
2022/06/14 08:29:52;;;;;;;7.85;5.08;;;;;;;30.90;63.81;100346.45;1743503;82;21042;-89
2022/06/14 08:32:31;;;;;;;11.73;5.50;;;;;;;30.98;65.88;100348.66;1743385;80;21290;-89
2022/06/14 08:35:12;;;;;;;5.85;5.33;;;;;;;31.10;67.49;100340.44;1720675;82;21249;-91
2022/06/14 08:38:02;;;;;;;5.90;5.40;;;;;;;31.21;63.66;100339.16;1725616;82;21034;-90
2022/06/14 08:41:03;;;;;;;5.97;5.47;;;;;;;31.30;61.63;100334.88;1740596;82;21124;-88
2022/06/14 08:43:46;;;;;;;4.65;4.33;;;;;;;31.41;63.37;100334.39;1784702;79;21630;-92
2022/06/14 08:46:42;;;;;;;12.37;6.00;;;;;;;31.50;61.90;100335.52;1727854;82;21006;-90
2022/06/14 08:49:27;;;;;;;14.05;5.72;;;;;;;31.58;61.45;100334.22;1721647;83;21214;-90
2022/06/14 08:52:20;;;;;;;9.63;4.85;;;;;;;31.66;58.40;100331.05;1713775;81;21088;-91
2022/06/14 08:55:28;;;;;;;5.35;4.83;;;;;;;31.81;56.31;100320.85;1745505;82;21073;-89
2022/06/14 08:58:36;;;;;;;7.47;5.40;;;;;;;31.98;51.49;100327.38;1696077;84;21086;-89
2022/06/14 09:01:18;;;;;;;5.15;4.75;;;;;;;32.06;50.58;100323.33;1710075;81;21033;-89
2022/06/14 09:04:22;;;;;;;5.25;4.83;;;;;;;32.06;47.06;100316.08;1738205;82;21791;-89
2022/06/14 09:07:07;;;;;;;4.85;4.40;;;;;;;32.06;47.92;100319.30;1739734;81;21560;-89
2022/06/14 09:09:46;;;;;;;4.90;4.50;;;;;;;32.06;45.23;100320.64;1732785;81;21050;-89
2022/06/14 09:12:41;;;;;;;4.65;4.30;;;;;;;32.07;44.48;100316.36;1721275;82;21089;-89
2022/06/14 09:15:33;;;;;;;5.35;4.85;;;;;;;32.10;40.37;100318.50;1762037;80;21051;-88
2022/06/14 09:18:25;;;;;;;7.55;5.83;;;;;;;32.09;44.30;100308.80;1744987;81;21007;-89
2022/06/14 09:21:28;;;;;;;5.72;5.22;;;;;;;32.14;45.08;100309.89;1722271;82;21076;-90
2022/06/14 09:24:22;;;;;;;5.90;5.40;;;;;;;32.22;44.48;100302.11;1726477;82;21056;-89
2022/06/14 09:27:21;;;;;;;6.00;5.08;;;;;;;32.26;43.42;100298.34;1716047;83;21042;-89
2022/06/14 09:30:08;;;;;;;5.72;5.22;;;;;;;32.27;44.29;100295.92;1733650;82;20958;-90
2022/06/14 09:33:09;;;;;;;6.50;5.90;;;;;;;32.32;42.54;100293.25;1727173;81;21245;-90
2022/06/14 09:36:17;;;;;;;6.92;6.00;;;;;;;32.39;44.14;100297.00;1746290;81;21043;-90
2022/06/14 09:39:31;;;;;;;5.83;5.22;;;;;;;32.47;44.23;100303.75;1729312;81;20987;-91
2022/06/14 09:42:43;;;;;;;6.40;5.90;;;;;;;32.51;43.79;100300.25;1716634;81;20991;-90
2022/06/14 09:45:46;;;;;;;7.25;6.15;;;;;;;32.46;44.47;100299.44;1733860;81;21880;-89
2022/06/14 09:49:09;;;;;;;6.00;5.40;;;;;;;32.42;45.34;100300.52;1724025;82;21248;-90
2022/06/14 09:52:01;;;;;;;5.42;4.97;;;;;;;32.41;46.11;100299.69;1731246;81;21019;-89
2022/06/14 09:55:02;;;;;;;7.15;6.30;;;;;;;32.46;44.84;100305.63;1722657;82;20972;-90
2022/06/14 09:57:41;;;;;;;7.25;6.00;;;;;;;32.53;44.42;100312.09;1787231;79;20949;-89
2022/06/14 10:00:53;;;;;;;5.53;5.03;;;;;;;32.55;45.49;100302.66;1781094;79;21048;-89
2022/06/14 10:03:53;;;;;;;7.22;5.45;;;;;;;32.64;47.68;100304.81;1767053;79;21250;-90
2022/06/14 10:07:09;;;;;;;7.28;6.30;;;;;;;32.68;40.94;100294.56;1772979;80;21514;-90
2022/06/14 10:09:51;;;;;;;6.72;6.12;;;;;;;32.68;40.94;100294.56;1719161;82;21045;-93
2022/06/14 10:12:35;;;;;;;6.58;5.97;;;;;;;32.60;42.15;100296.46;1742992;80;21552;-91
2022/06/14 10:15:34;;;;;;;7.80;5.95;;;;;;;32.49;41.00;100294.31;1739296;81;21044;-89
2022/06/14 10:18:33;;;;;;;6.78;5.92;;;;;;;32.56;43.48;100300.23;1731124;82;21305;-91
2022/06/14 10:21:07;;;;;;;6.37;4.87;;;;;;;32.67;43.04;100296.98;1719874;81;21020;-90
2022/06/14 10:24:02;;;;;;;5.72;5.22;;;;;;;32.69;43.29;100295.39;1732081;81;21039;-90
2022/06/14 10:29:41;;;;;;;7.00;6.22;;;;;;;32.51;45.72;100299.42;1800887;79;20968;-90
2022/06/14 10:32:32;;;;;;;7.85;6.80;;;;;;;32.51;44.10;100296.73;1791041;79;21254;-90
2022/06/14 10:35:14;;;;;;;;;;;;;;;32.40;42.96;100295.41;1789754;78;21008;-90
2022/06/14 10:38:38;;;;;;;7.97;5.90;;;;;;;32.12;45.57;100295.36;1786069;78;20189;-89
2022/06/14 10:41:32;;;;;;;6.78;6.08;;;;;;;31.67;47.41;100295.00;1783016;79;21023;-88
2022/06/14 10:44:14;;;;;;;6.95;5.85;;;;;;;30.98;49.56;100302.14;1773874;79;21046;-90
2022/06/14 10:46:57;;;;;;;8.75;6.95;;;;;;;30.37;48.30;100301.95;1721269;81;21039;-89
2022/06/14 10:50:11;;;;;;;9.88;6.58;;;;;;;29.81;49.31;100310.21;1709925;83;21567;-89
2022/06/14 10:53:17;;;;;;;8.05;6.83;;;;;;;29.30;51.19;100302.33;1704697;83;21054;-88
2022/06/14 10:56:26;;;;;;;9.18;6.72;;;;;;;28.78;54.50;100301.62;1728217;82;21010;-88
2022/06/14 10:59:09;;;;;;;8.58;6.53;;;;;;;28.45;57.91;100300.52;1771438;80;20996;-89
2022/06/14 11:01:48;;;;;;;9.60;7.42;;;;;;;28.23;64.14;100296.39;1785405;79;21170;-88
2022/06/14 11:04:38;;;;;;;10.48;6.60;;;;;;;28.03;72.32;100301.65;1788557;79;21531;-87
2022/06/14 11:07:56;;;;;;;10.85;7.65;;;;;;;27.84;82.34;100299.69;1790986;79;21012;-87
2022/06/14 11:11:06;;;;;;;7.03;6.40;;;;;;;27.59;86.94;100298.14;1782193;79;21049;-87
2022/06/14 11:14:07;;;;;;;9.68;8.60;;;;;;;27.42;99.69;100298.55;1775431;80;20992;-88
2022/06/14 11:16:51;;;;;;;7.83;7.12;;;;;;;27.27;100.00;100291.83;1767465;79;21136;-87
2022/06/14 11:19:42;;;;;;;7.67;6.97;;;;;;;27.16;100.00;100295.31;1787901;79;21801;-89
2022/06/14 11:22:40;;;;;;;8.60;7.30;;;;;;;27.05;100.00;100290.27;1774008;79;21059;-88
2022/06/14 11:25:45;;;;;;;9.78;7.17;;;;;;;26.91;100.00;100287.02;1781972;78;20997;-89
2022/06/14 11:28:25;;;;;;;8.05;7.28;;;;;;;26.81;100.00;100286.77;1761811;81;21087;-88
2022/06/14 11:31:26;;;;;;;8.43;7.55;;;;;;;26.71;100.00;100277.47;1731475;81;21120;-89
2022/06/14 11:34:20;;;;;;;13.18;8.60;;;;;;;26.66;100.00;100270.66;1693852;83;21016;-88
2022/06/14 11:37:07;;;;;;;9.63;7.95;;;;;;;26.63;100.00;100265.80;1711837;83;21135;-89
2022/06/14 11:39:45;;;;;;;8.78;7.90;;;;;;;26.66;100.00;100266.64;1785648;79;21018;-89
2022/06/14 11:42:30;;;;;;;10.93;8.38;;;;;;;26.69;100.00;100263.52;1786085;79;20974;-89
2022/06/14 11:45:21;;;;;;;9.10;7.65;;;;;;;26.70;100.00;100266.49;1771607;79;21253;-89
2022/06/14 11:48:29;;;;;;;8.63;7.42;;;;;;;26.73;100.00;100255.33;1773930;79;21013;-88
2022/06/14 11:51:24;;;;;;;8.90;7.92;;;;;;;26.79;100.00;100248.82;1753368;81;21022;-88
2022/06/14 11:54:21;;;;;;;8.48;6.47;;;;;;;26.81;100.00;100248.88;1729724;80;21017;-90
2022/06/14 11:57:09;;;;;;;9.10;8.20;;;;;;;26.84;100.00;100249.73;1745598;82;21084;-88
2022/06/14 12:00:01;;;;;;;10.28;7.37;;;;;;;26.87;100.00;100237.79;1735799;82;21184;-89
2022/06/14 12:02:43;;;;;;;7.65;6.72;;;;;;;26.96;100.00;100236.91;1747373;82;21038;-89
2022/06/14 12:05:30;;;;;;;;;;;;;;;27.07;100.00;100236.89;1726642;82;21030;-89
2022/06/14 12:08:27;;;;;;;8.90;7.20;;;;;;;27.17;99.56;100230.94;1732538;82;20135;-89
2022/06/14 12:11:16;;;;;;;8.23;7.50;;;;;;;27.29;92.61;100238.94;1719619;82;21002;-88
2022/06/14 12:13:59;;;;;;;9.05;7.10;;;;;;;27.43;100.00;100236.05;1728460;81;21855;-88
2022/06/14 12:16:42;;;;;;;7.60;7.00;;;;;;;27.53;100.00;100240.23;1739645;81;21515;-90
2022/06/14 12:19:28;;;;;;;7.60;7.00;;;;;;;27.67;97.61;100237.59;1713398;83;21068;-89
2022/06/14 12:22:32;;;;;;;8.60;6.45;;;;;;;28.02;95.40;100238.48;1744396;81;21557;-91
2022/06/14 12:28:04;;;;;;;7.03;6.40;;;;;;;28.86;86.11;100242.27;1757804;80;21307;-89
2022/06/14 12:30:34;;;;;;;6.22;5.62;;;;;;;29.25;74.17;100241.41;1725462;80;21038;-89
2022/06/14 12:33:35;;;;;;;6.65;6.10;;;;;;;29.67;68.46;100233.36;1792070;79;20977;-89
2022/06/14 12:36:16;;;;;;;5.95;5.37;;;;;;;30.09;59.98;100231.36;1796825;79;20960;-89
2022/06/14 12:38:47;;;;;;;5.90;5.40;;;;;;;30.63;58.63;100233.14;1792476;79;21027;-89
2022/06/14 12:41:27;;;;;;;5.50;5.00;;;;;;;31.08;52.99;100225.59;1774844;80;21121;-89
2022/06/14 12:44:28;;;;;;;7.95;5.75;;;;;;;31.45;49.69;100217.95;1793301;78;21013;-90
2022/06/14 12:47:01;;;;;;;5.62;5.20;;;;;;;31.79;50.34;100220.75;1774580;80;21082;-88
2022/06/14 12:49:38;;;;;;;7.03;5.62;;;;;;;32.10;51.60;100216.18;1781135;80;21075;-89
2022/06/14 12:52:36;;;;;;;6.00;5.15;;;;;;;32.27;48.86;100217.03;1784323;79;21091;-88
2022/06/14 12:55:19;;;;;;;5.83;5.33;;;;;;;32.37;47.95;100213.78;1788878;79;21122;-88
2022/06/14 12:58:18;;;;;;;9.35;5.78;;;;;;;32.49;41.46;100214.05;1785707;79;20981;-90
2022/06/14 13:00:57;;;;;;;5.58;5.15;;;;;;;32.41;43.45;100215.39;1798709;78;21079;-92